Bookmark and Share
Track history (hours):
 

Mary K Cavarra

More information available from US FCC via Universal Licensing System and Coast Guard Vessel Documentation Center.

Last reported at 2013-Dec-22 02:21 UTC. Time now 2014-Apr-24 19:35 UTC.
Position N 39°06' W 084°50'.
Warning: this ship's position is months out of date.

Length 52 m.

Type: Towing. MMSI: 366967650.

NotesDate/timePositionNaut miles runAvg speedWind from/ knotsBaromVisibWave heightAir tempDewpointWater temp
2013-Dec-22 02:21N 39°06' W 084°50'6 6.9
2013-Dec-22 01:32N 39°09' W 084°44'7 7.3
2013-Dec-22 00:33N 39°04' W 084°37'7 6.8
2013-Dec-21 23:32N 39°07' W 084°29'6 6.0
2013-Dec-21 22:33N 39°03' W 084°24'7 6.8
2013-Dec-21 21:33N 38°58' W 084°18'6 5.6
2013-Dec-21 20:33N 38°53' W 084°14'  
2013-Dec-19 11:33N 38°47' W 084°07'3 2.6
2013-Dec-19 10:33N 38°48' W 084°11'3 3.2
2013-Dec-19 09:31N 38°50' W 084°14'4 4.4
2013-Dec-19 08:32N 38°54' W 084°15'4 4.5
2013-Dec-19 07:33N 38°58' W 084°18'4 4.2
2013-Dec-19 06:34N 39°02' W 084°20'2 2.4
2013-Dec-19 05:33N 39°03' W 084°23'4 3.5
2013-Dec-19 04:31N 39°05' W 084°26'3 2.9
2013-Dec-19 03:32N 39°06' W 084°30'4 3.7
2013-Dec-19 02:32N 39°05' W 084°34'2 1.6
2013-Dec-19 01:32N 39°04' W 084°36'4 4.1
2013-Dec-19 00:33N 39°06' W 084°41'1 0.5
2013-Dec-18 23:24N 39°06' W 084°41'0 0.0
2013-Dec-18 22:29N 39°06' W 084°41'0 0.0
2013-Dec-18 20:33N 39°06' W 084°41'0 0.0
2013-Dec-18 19:21N 39°06' W 084°41'0 0.0
2013-Dec-18 18:18N 39°06' W 084°41'3 3.9
2013-Dec-18 17:33N 39°08' W 084°44'4 3.6
2013-Dec-18 16:33N 39°07' W 084°48'  

Dump ship's entire track history

sailing weather and tide predictions

Mary K Cavarra — WDB9000 — position and weather